createdAt,value
2022-09-22T00:01:49.880Z,10.20
2022-09-22T00:04:50.403Z,7.30
2022-09-22T00:07:58.234Z,9.10
2022-09-22T00:11:05.453Z,5.40
2022-09-22T00:14:13.764Z,9.90
2022-09-22T00:17:21.921Z,12.40
2022-09-22T00:20:29.105Z,10.30
2022-09-22T00:23:36.725Z,11.60
2022-09-22T00:26:44.286Z,7.30
2022-09-22T00:29:51.567Z,11.50
2022-09-22T00:32:59.878Z,8.60
2022-09-22T00:36:07.464Z,9.70
2022-09-22T00:39:15.157Z,9.80
2022-09-22T00:42:23.329Z,5.90
2022-09-22T00:45:31.079Z,5.80
2022-09-22T00:48:38.888Z,10.20
2022-09-22T00:51:46.518Z,11.50
2022-09-22T00:54:54.151Z,11.00
2022-09-22T00:58:01.901Z,13.40
2022-09-22T01:01:09.685Z,12.60
2022-09-22T01:04:17.562Z,12.20
2022-09-22T01:07:25.124Z,8.10
2022-09-22T01:10:32.725Z,7.50
2022-09-22T01:13:40.824Z,6.80
2022-09-22T01:16:48.595Z,9.10
2022-09-22T01:19:55.925Z,11.40
2022-09-22T01:23:03.607Z,11.00
2022-09-22T01:26:10.747Z,11.60
2022-09-22T01:29:18.626Z,7.50
2022-09-22T01:32:26.537Z,9.50
2022-09-22T01:35:33.788Z,9.30
2022-09-22T01:38:41.898Z,6.60
2022-09-22T01:41:49.910Z,11.30
2022-09-22T01:44:57.260Z,7.20
2022-09-22T01:48:05.408Z,8.90
2022-09-22T01:51:12.931Z,9.20
2022-09-22T01:54:20.600Z,6.70
2022-09-22T01:57:28.182Z,10.30
2022-09-22T02:00:35.913Z,7.80
2022-09-22T02:03:44.019Z,9.60
2022-09-22T02:06:51.812Z,10.40
2022-09-22T02:09:59.445Z,10.00
2022-09-22T02:13:07.113Z,9.00
2022-09-22T02:16:14.945Z,8.50
2022-09-22T02:19:22.775Z,8.30
2022-09-22T02:22:30.436Z,11.10
2022-09-22T02:25:38.096Z,10.40
2022-09-22T02:28:46.145Z,11.50
2022-09-22T02:31:53.893Z,9.20
2022-09-22T02:35:01.605Z,7.30
2022-09-22T02:38:09.790Z,10.10
2022-09-22T02:41:17.019Z,12.10
2022-09-22T02:44:24.700Z,11.30
2022-09-22T02:47:32.859Z,14.80
2022-09-22T02:50:40.109Z,12.60
2022-09-22T02:53:48.271Z,9.00
2022-09-22T02:56:56.029Z,10.00
2022-09-22T03:00:03.292Z,10.00
2022-09-22T03:03:11.174Z,11.30
2022-09-22T03:06:18.793Z,9.00
2022-09-22T03:09:26.553Z,11.00
2022-09-22T03:12:34.661Z,13.90
2022-09-22T03:15:42.422Z,8.70
2022-09-22T03:18:49.943Z,9.90
2022-09-22T03:21:58.006Z,11.90
2022-09-22T03:25:05.735Z,11.60
2022-09-22T03:28:13.406Z,9.90
2022-09-22T03:31:20.916Z,9.80
2022-09-22T03:34:28.966Z,10.00
2022-09-22T03:37:36.658Z,9.30
2022-09-22T03:40:44.526Z,11.30
2022-09-22T03:43:52.492Z,7.70
2022-09-22T03:47:00.175Z,10.50
2022-09-22T03:50:07.469Z,8.90
2022-09-22T03:53:15.470Z,9.10
2022-09-22T03:56:22.723Z,8.80
2022-09-22T03:59:30.780Z,7.90
2022-09-22T04:02:38.918Z,8.00
2022-09-22T04:05:46.211Z,9.90
2022-09-22T04:08:54.025Z,7.70
2022-09-22T04:12:01.638Z,9.90
2022-09-22T04:15:08.965Z,9.40
2022-09-22T04:18:17.103Z,7.10
2022-09-22T04:21:24.830Z,9.80
2022-09-22T04:24:32.531Z,7.80
2022-09-22T04:27:40.572Z,9.50
2022-09-22T04:30:48.264Z,8.90
2022-09-22T04:33:55.868Z,10.10
2022-09-22T04:37:03.416Z,8.60
2022-09-22T04:40:11.377Z,7.20
2022-09-22T04:43:18.835Z,11.10
2022-09-22T04:46:26.407Z,7.30
2022-09-22T04:49:34.495Z,10.50
2022-09-22T04:52:42.248Z,9.20
2022-09-22T04:55:49.775Z,11.10
2022-09-22T04:58:57.692Z,16.30
2022-09-22T05:02:04.981Z,14.80
2022-09-22T05:05:12.827Z,11.60
2022-09-22T05:08:20.510Z,11.90
2022-09-22T05:11:27.763Z,14.30
2022-09-22T05:14:35.889Z,12.80
2022-09-22T05:17:43.626Z,11.70
2022-09-22T05:20:51.352Z,11.70
2022-09-22T05:23:59.527Z,13.20
2022-09-22T05:27:06.785Z,12.10
2022-09-22T05:30:14.734Z,14.40
2022-09-22T05:33:22.793Z,14.20
2022-09-22T05:36:30.225Z,17.20
2022-09-22T05:39:38.133Z,14.60
2022-09-22T05:42:45.926Z,11.20
2022-09-22T05:45:53.406Z,13.90
2022-09-22T05:49:01.466Z,12.30
2022-09-22T05:52:09.268Z,14.50
2022-09-22T05:55:16.998Z,15.90
2022-09-22T05:58:25.076Z,10.60
2022-09-22T06:01:32.812Z,14.60
2022-09-22T06:04:40.551Z,11.70
2022-09-22T06:07:48.611Z,16.20
2022-09-22T06:10:56.461Z,10.30
2022-09-22T06:14:04.122Z,11.30
2022-09-22T06:17:11.900Z,15.30
2022-09-22T06:20:19.863Z,11.40
2022-09-22T06:23:27.490Z,11.70
2022-09-22T06:26:35.034Z,12.90
2022-09-22T06:29:42.991Z,13.50
2022-09-22T06:32:50.552Z,13.80
2022-09-22T06:35:58.289Z,12.40
2022-09-22T06:39:06.083Z,11.90
2022-09-22T06:42:13.696Z,12.20
2022-09-22T06:45:21.286Z,11.00
2022-09-22T06:48:28.927Z,10.60
2022-09-22T06:51:36.654Z,15.00
2022-09-22T06:54:44.634Z,9.90
2022-09-22T06:57:52.298Z,12.00
2022-09-22T07:01:00.082Z,10.80
2022-09-22T07:04:08.149Z,8.80
2022-09-22T07:07:15.809Z,10.10
2022-09-22T07:10:23.449Z,12.60
2022-09-22T07:13:31.581Z,11.30
2022-09-22T07:16:38.966Z,11.00
2022-09-22T07:19:46.990Z,10.00
2022-09-22T07:22:54.815Z,9.40
2022-09-22T07:26:01.974Z,10.50
2022-09-22T07:29:10.154Z,11.40
2022-09-22T07:32:17.786Z,9.60
2022-09-22T07:35:25.256Z,7.50
2022-09-22T07:38:33.165Z,7.60
2022-09-22T07:41:40.405Z,6.20
2022-09-22T07:44:48.577Z,9.00
2022-09-22T07:47:56.518Z,14.50
2022-09-22T07:51:04.328Z,12.40
2022-09-22T07:54:12.019Z,10.30
2022-09-22T07:57:19.936Z,10.90
2022-09-22T08:00:27.270Z,8.80
2022-09-22T08:03:35.198Z,7.00
2022-09-22T08:06:43.381Z,7.70
2022-09-22T08:09:50.862Z,5.70
2022-09-22T08:12:58.513Z,8.00
2022-09-22T08:16:06.404Z,7.50
2022-09-22T08:19:14.001Z,8.60
2022-09-22T08:22:22.197Z,8.00
2022-09-22T08:25:29.703Z,8.40
2022-09-22T08:28:37.326Z,8.10
2022-09-22T08:31:45.671Z,9.40
2022-09-22T08:34:53.288Z,9.50
2022-09-22T08:38:01.069Z,12.50
2022-09-22T08:41:08.706Z,9.30
2022-09-22T08:44:16.710Z,13.20
2022-09-22T08:47:24.583Z,9.90
2022-09-22T08:50:32.232Z,8.90
2022-09-22T08:53:40.952Z,11.20
2022-09-22T08:56:48.563Z,8.90
2022-09-22T08:59:56.340Z,8.80
2022-09-22T09:03:04.596Z,13.80
2022-09-22T09:06:12.013Z,7.60
2022-09-22T09:09:20.256Z,10.60
2022-09-22T09:12:27.877Z,8.30
2022-09-22T09:15:35.417Z,8.90
2022-09-22T09:18:43.397Z,8.80
2022-09-22T09:21:51.009Z,5.40
2022-09-22T09:28:03.841Z,6.20
2022-09-22T09:31:11.102Z,5.90
2022-09-22T09:34:19.284Z,4.60
2022-09-22T09:37:27.532Z,5.10
2022-09-22T09:40:34.894Z,8.90
2022-09-22T09:43:43.123Z,7.20
2022-09-22T09:46:51.176Z,5.30
2022-09-22T09:49:58.327Z,4.30
2022-09-22T09:53:08.580Z,7.10
2022-09-22T09:56:16.639Z,6.80
2022-09-22T09:59:24.609Z,5.10
2022-09-22T10:02:32.190Z,4.30
2022-09-22T10:05:39.841Z,4.60
2022-09-22T10:08:47.481Z,5.30
2022-09-22T10:11:55.512Z,5.10
2022-09-22T10:15:03.140Z,3.10
2022-09-22T10:18:10.811Z,3.10
2022-09-22T10:21:18.294Z,4.60
2022-09-22T10:24:26.415Z,5.90
2022-09-22T10:27:34.275Z,3.90
2022-09-22T10:30:41.919Z,5.10
2022-09-22T10:33:49.948Z,3.90
2022-09-22T10:36:57.538Z,4.00
2022-09-22T10:40:05.326Z,2.30
2022-09-22T10:43:13.642Z,5.20
2022-09-22T10:46:20.913Z,2.80
2022-09-22T10:49:29.334Z,3.80
2022-09-22T10:52:37.604Z,2.70
2022-09-22T10:55:44.795Z,3.60
2022-09-22T10:58:52.916Z,2.10
2022-09-22T11:02:00.534Z,2.70
2022-09-22T11:05:07.928Z,2.90
2022-09-22T11:08:15.697Z,4.00
2022-09-22T11:11:23.219Z,2.70
2022-09-22T11:14:30.840Z,1.30
2022-09-22T11:17:38.790Z,2.00
2022-09-22T11:20:46.459Z,1.70
2022-09-22T11:23:54.321Z,2.30
2022-09-22T11:27:02.464Z,3.10
2022-09-22T11:30:11.224Z,2.00
2022-09-22T11:33:19.285Z,2.50
2022-09-22T11:36:26.965Z,3.40
2022-09-22T11:39:34.708Z,2.50
2022-09-22T11:42:42.727Z,3.80
2022-09-22T11:45:50.575Z,1.40
2022-09-22T11:48:58.227Z,1.30
2022-09-22T11:52:06.190Z,1.70
2022-09-22T11:55:13.861Z,1.50
2022-09-22T11:58:21.492Z,1.30
2022-09-22T12:01:29.265Z,0.40
2022-09-22T12:04:37.485Z,1.50
2022-09-22T12:07:45.362Z,1.20
2022-09-22T12:10:53.034Z,1.60
2022-09-22T12:14:01.287Z,0.90
2022-09-22T12:17:08.778Z,1.70
2022-09-22T12:20:16.377Z,1.40
2022-09-22T12:23:24.269Z,2.70
2022-09-22T12:26:31.601Z,0.30
2022-09-22T12:29:40.056Z,2.30
2022-09-22T12:32:48.054Z,0.80
2022-09-22T12:35:55.334Z,0.90
2022-09-22T12:39:03.216Z,0.60
2022-09-22T12:42:11.186Z,1.70
2022-09-22T12:45:18.489Z,1.30
2022-09-22T12:48:26.668Z,0.60
2022-09-22T12:51:34.608Z,0.70
2022-09-22T12:54:42.549Z,1.70
2022-09-22T12:57:50.736Z,0.60
2022-09-22T13:00:58.761Z,1.30
2022-09-22T13:04:06.712Z,1.00
2022-09-22T13:07:14.715Z,1.40
2022-09-22T13:10:22.583Z,0.40
2022-09-22T13:13:30.627Z,1.50
2022-09-22T13:16:38.599Z,0.50
2022-09-22T13:19:46.919Z,0.60
2022-09-22T13:22:54.819Z,1.30
2022-09-22T13:26:02.950Z,0.40
2022-09-22T13:29:11.111Z,1.20
2022-09-22T13:32:19.102Z,3.80
2022-09-22T13:35:26.923Z,0.70
2022-09-22T13:38:35.105Z,0.70
2022-09-22T13:41:42.621Z,3.20
2022-09-22T13:44:51.256Z,1.40
2022-09-22T13:47:59.417Z,0.60
2022-09-22T13:51:06.848Z,1.20
2022-09-22T13:54:15.099Z,0.50
2022-09-22T13:57:23.331Z,0.50
2022-09-22T14:00:30.799Z,0.30
2022-09-22T14:03:39.171Z,0.50
2022-09-22T14:06:47.021Z,1.40
2022-09-22T14:09:55.054Z,0.20
2022-09-22T14:13:03.394Z,0.50
2022-09-22T14:16:11.305Z,1.20
2022-09-22T14:19:19.417Z,1.80
2022-09-22T14:22:27.440Z,0.40
2022-09-22T14:25:35.839Z,2.10
2022-09-22T14:28:43.638Z,1.00
2022-09-22T14:31:51.604Z,0.50
2022-09-22T14:34:59.937Z,1.20
2022-09-22T14:38:17.505Z,0.50
2022-09-22T14:41:13.395Z,0.70
2022-09-22T14:44:21.545Z,0.80
2022-09-22T14:47:29.127Z,2.50
2022-09-22T14:50:37.320Z,1.90
2022-09-22T14:53:45.408Z,1.50
2022-09-22T14:56:52.800Z,2.60
2022-09-22T15:00:01.109Z,0.90
2022-09-22T15:03:08.812Z,2.10
2022-09-22T15:06:16.812Z,0.70
2022-09-22T15:09:24.771Z,0.80
2022-09-22T15:12:32.683Z,0.40
2022-09-22T15:15:40.469Z,0.30
2022-09-22T15:18:48.893Z,1.40
2022-09-22T15:21:56.899Z,1.70
2022-09-22T15:25:04.844Z,1.90
2022-09-22T15:28:13.228Z,0.70
2022-09-22T15:31:21.153Z,0.70
2022-09-22T15:34:29.072Z,0.60
2022-09-22T15:37:37.085Z,0.30
2022-09-22T15:40:44.933Z,0.70
2022-09-22T15:43:53.192Z,0.70
2022-09-22T15:47:01.295Z,0.30
2022-09-22T15:50:09.197Z,1.00
2022-09-22T15:53:17.070Z,2.20
2022-09-22T15:56:25.099Z,0.50
2022-09-22T15:59:32.972Z,2.10
2022-09-22T16:02:40.703Z,0.70
2022-09-22T16:05:49.105Z,2.20
2022-09-22T16:08:57.023Z,0.30
2022-09-22T16:12:05.899Z,0.60
2022-09-22T16:15:13.361Z,1.00
2022-09-22T16:18:21.954Z,0.50
2022-09-22T16:21:29.983Z,0.80
2022-09-22T16:24:37.965Z,0.20
2022-09-22T16:27:45.887Z,10.50
2022-09-22T16:30:54.229Z,2.30
2022-09-22T16:34:02.057Z,1.10
2022-09-22T16:37:10.010Z,1.50
2022-09-22T16:40:17.803Z,0.20
2022-09-22T16:43:25.401Z,1.70
2022-09-22T16:46:33.728Z,1.40
2022-09-22T16:49:41.142Z,4.20
2022-09-22T16:52:49.365Z,17.50
2022-09-22T16:55:56.615Z,32.70
2022-09-22T16:59:04.734Z,30.30
2022-09-22T17:02:12.690Z,15.00
2022-09-22T17:05:20.287Z,20.90
2022-09-22T17:08:28.550Z,43.90
2022-09-22T17:11:36.028Z,74.40
2022-09-22T17:14:43.801Z,32.80
2022-09-22T17:17:51.941Z,35.40
2022-09-22T17:20:59.322Z,29.30
2022-09-22T17:24:07.742Z,5.80
2022-09-22T17:27:15.415Z,18.40
2022-09-22T17:30:22.714Z,4.50
2022-09-22T17:33:30.864Z,5.40
2022-09-22T17:36:38.622Z,20.80
2022-09-22T17:39:46.304Z,17.80
2022-09-22T17:42:54.407Z,8.40
2022-09-22T17:46:01.965Z,7.60
2022-09-22T17:49:09.708Z,3.50
2022-09-22T17:52:17.848Z,1.90
2022-09-22T17:55:25.443Z,3.00
2022-09-22T17:58:33.173Z,2.90
2022-09-22T18:01:40.821Z,8.10
2022-09-22T18:04:48.915Z,2.10
2022-09-22T18:07:56.685Z,2.70
2022-09-22T18:11:04.617Z,1.90
2022-09-22T18:14:12.684Z,2.90
2022-09-22T18:17:20.052Z,2.60
2022-09-22T18:20:27.936Z,2.10
2022-09-22T18:23:35.619Z,2.20
2022-09-22T18:26:43.176Z,2.30
2022-09-22T18:29:50.922Z,1.40
2022-09-22T18:32:58.613Z,1.40
2022-09-22T18:36:06.575Z,1.10
2022-09-22T18:39:15.033Z,2.10
2022-09-22T18:42:22.371Z,1.50
2022-09-22T18:45:30.475Z,1.20
2022-09-22T18:48:38.364Z,1.10
2022-09-22T18:51:45.785Z,1.50
2022-09-22T18:54:54.587Z,1.50
2022-09-22T18:58:02.746Z,3.60
2022-09-22T19:01:10.026Z,1.50
2022-09-22T19:04:17.498Z,2.50
2022-09-22T19:07:25.220Z,1.20
2022-09-22T19:10:32.924Z,1.80
2022-09-22T19:13:41.032Z,1.10
2022-09-22T19:16:48.509Z,3.30
2022-09-22T19:19:56.522Z,1.20
2022-09-22T19:23:04.743Z,1.70
2022-09-22T19:26:12.181Z,1.60
2022-09-22T19:29:20.334Z,1.00
2022-09-22T19:32:27.887Z,1.10
2022-09-22T19:35:39.049Z,1.10
2022-09-22T19:38:36.334Z,2.40
2022-09-22T19:41:44.077Z,2.00
2022-09-22T19:44:51.886Z,1.90
2022-09-22T19:48:00.179Z,1.60
2022-09-22T19:51:07.946Z,1.80
2022-09-22T19:54:15.583Z,2.70
2022-09-22T19:57:23.311Z,2.20
2022-09-22T20:00:31.609Z,1.80
2022-09-22T20:03:39.332Z,2.20
2022-09-22T20:06:47.083Z,1.60
2022-09-22T20:09:54.785Z,2.40
2022-09-22T20:13:02.374Z,2.00
2022-09-22T20:16:10.157Z,1.00
2022-09-22T20:19:17.677Z,1.00
2022-09-22T20:22:25.817Z,1.40
2022-09-22T20:25:33.607Z,0.90
2022-09-22T20:28:41.186Z,1.70
2022-09-22T20:31:48.748Z,3.40
2022-09-22T20:34:56.917Z,1.00
2022-09-22T20:38:04.516Z,1.20
2022-09-22T20:41:12.321Z,1.10
2022-09-22T20:44:20.172Z,0.80
2022-09-22T20:47:27.730Z,1.90
2022-09-22T20:50:35.381Z,1.40
2022-09-22T20:53:43.503Z,1.40
2022-09-22T20:56:50.854Z,2.40
2022-09-22T20:59:58.954Z,1.70
2022-09-22T21:03:02.641Z,1.90
2022-09-22T21:06:10.386Z,1.60
2022-09-22T21:09:18.335Z,1.40
2022-09-22T21:12:30.701Z,2.10
2022-09-22T21:15:28.230Z,2.00
2022-09-22T21:18:36.169Z,1.20
2022-09-22T21:21:43.461Z,1.30
2022-09-22T21:24:51.495Z,2.10
2022-09-22T21:27:59.493Z,3.00
2022-09-22T21:31:06.915Z,1.50
2022-09-22T21:34:14.979Z,2.30
2022-09-22T21:37:22.632Z,1.00
2022-09-22T21:40:30.079Z,1.60
2022-09-22T21:43:38.152Z,1.70
2022-09-22T21:46:45.535Z,1.00
2022-09-22T21:49:53.622Z,0.80
2022-09-22T21:53:01.648Z,1.10
2022-09-22T21:56:08.914Z,1.30
2022-09-22T21:59:16.957Z,1.10
2022-09-22T22:02:24.938Z,3.80
2022-09-22T22:05:32.211Z,1.40
2022-09-22T22:08:40.252Z,2.80
2022-09-22T22:11:47.490Z,1.20
2022-09-22T22:14:55.191Z,1.50
2022-09-22T22:18:03.150Z,1.40
2022-09-22T22:21:10.715Z,2.90
2022-09-22T22:24:18.338Z,2.20
2022-09-22T22:27:26.394Z,1.90
2022-09-22T22:30:34.247Z,1.20
2022-09-22T22:33:41.926Z,1.60
2022-09-22T22:36:49.605Z,1.50
2022-09-22T22:39:57.366Z,1.20
2022-09-22T22:43:05.567Z,2.50
2022-09-22T22:46:13.481Z,1.40
2022-09-22T22:49:20.919Z,1.50
2022-09-22T22:52:29.057Z,3.60
2022-09-22T22:55:36.690Z,3.60
2022-09-22T22:58:44.249Z,1.80
2022-09-22T23:01:52.038Z,2.80
2022-09-22T23:04:59.725Z,0.80
2022-09-22T23:08:07.371Z,3.50
2022-09-22T23:11:14.900Z,1.10
2022-09-22T23:14:22.976Z,2.10
2022-09-22T23:17:30.594Z,3.60
2022-09-22T23:20:38.343Z,1.00
2022-09-22T23:23:46.373Z,1.10
2022-09-22T23:26:54.145Z,4.30
2022-09-22T23:30:01.859Z,1.80
2022-09-22T23:33:09.917Z,2.50
2022-09-22T23:36:17.175Z,3.30
2022-09-22T23:39:25.298Z,2.10
2022-09-22T23:42:33.367Z,1.80
2022-09-22T23:45:40.640Z,1.50
2022-09-22T23:48:48.860Z,4.20
2022-09-22T23:51:56.641Z,2.20
2022-09-22T23:55:04.441Z,1.60
2022-09-22T23:58:12.481Z,2.20
